createdAt,value
2018-06-20T00:00:34.372Z,0.00
2018-06-20T00:01:34.369Z,0.00
2018-06-20T00:02:34.370Z,0.00
2018-06-20T00:03:34.360Z,0.00
2018-06-20T00:04:34.363Z,0.00
2018-06-20T00:05:34.353Z,0.00
2018-06-20T00:06:34.348Z,0.00
2018-06-20T00:07:34.349Z,0.00
2018-06-20T00:08:34.341Z,0.00
2018-06-20T00:09:34.340Z,0.00
2018-06-20T00:10:34.332Z,0.00
2018-06-20T00:11:34.328Z,0.00
2018-06-20T00:12:34.328Z,0.00
2018-06-20T00:13:34.321Z,0.00
2018-06-20T00:14:34.316Z,0.00
2018-06-20T00:15:34.316Z,0.00
2018-06-20T00:16:34.310Z,0.00
2018-06-20T00:17:34.306Z,0.00
2018-06-20T00:18:34.299Z,0.00
2018-06-20T00:19:34.300Z,0.00
2018-06-20T00:20:34.291Z,0.00
2018-06-20T00:21:34.287Z,0.00
2018-06-20T00:22:34.284Z,0.00
2018-06-20T00:23:34.278Z,0.00
2018-06-20T00:24:34.276Z,0.00
2018-06-20T00:25:34.271Z,0.00
2018-06-20T00:26:34.265Z,0.00
2018-06-20T00:27:34.263Z,0.00
2018-06-20T00:28:34.263Z,0.00
2018-06-20T00:29:34.258Z,0.00
2018-06-20T00:30:34.254Z,0.00
2018-06-20T00:31:34.244Z,0.00
2018-06-20T00:32:34.245Z,0.00
2018-06-20T00:33:34.241Z,0.00
2018-06-20T00:34:34.232Z,0.00
2018-06-20T00:35:34.228Z,0.00
2018-06-20T00:37:34.223Z,0.00
2018-06-20T00:38:34.215Z,0.00
2018-06-20T00:39:34.213Z,0.00
2018-06-20T00:40:34.207Z,0.00
2018-06-20T00:41:34.203Z,0.00
2018-06-20T00:42:34.198Z,0.00
2018-06-20T00:43:34.199Z,0.00
2018-06-20T00:44:34.190Z,0.00
2018-06-20T00:45:34.186Z,0.00
2018-06-20T00:46:34.181Z,0.00
2018-06-20T00:47:34.177Z,0.00
2018-06-20T00:48:34.173Z,0.00
2018-06-20T00:49:34.169Z,0.00
2018-06-20T00:50:34.164Z,0.00
2018-06-20T00:51:34.161Z,0.00
2018-06-20T00:52:34.156Z,0.00
2018-06-20T00:53:34.152Z,0.00
2018-06-20T00:54:34.155Z,0.00
2018-06-20T00:55:34.146Z,0.00
2018-06-20T00:56:34.139Z,0.00
2018-06-20T00:57:34.135Z,0.00
2018-06-20T00:58:34.130Z,0.00
2018-06-20T00:59:34.129Z,0.00
2018-06-20T01:00:34.122Z,0.00
2018-06-20T01:01:34.118Z,0.00
2018-06-20T01:02:34.113Z,0.00
2018-06-20T01:03:34.109Z,0.00
2018-06-20T01:04:34.105Z,0.00
2018-06-20T01:05:34.101Z,0.00
2018-06-20T01:06:34.096Z,0.00
2018-06-20T01:07:34.092Z,0.00
2018-06-20T01:08:34.088Z,0.00
2018-06-20T01:09:34.085Z,0.00
2018-06-20T01:10:34.079Z,0.00
2018-06-20T01:11:34.091Z,0.00
2018-06-20T01:12:34.072Z,0.00
2018-06-20T01:13:34.069Z,0.00
2018-06-20T01:14:34.062Z,0.00
2018-06-20T01:15:34.058Z,0.00
2018-06-20T01:16:34.055Z,0.00
2018-06-20T01:17:34.051Z,0.00
2018-06-20T01:18:34.046Z,0.00
2018-06-20T01:19:34.042Z,0.00
2018-06-20T01:20:34.038Z,0.00
2018-06-20T01:21:34.034Z,0.00
2018-06-20T01:22:34.231Z,0.00
2018-06-20T01:23:34.025Z,0.00
2018-06-20T01:24:34.021Z,0.00
2018-06-20T01:25:34.019Z,0.00
2018-06-20T01:26:34.012Z,0.00
2018-06-20T01:27:34.009Z,0.00
2018-06-20T01:28:34.004Z,0.00
2018-06-20T01:29:34.000Z,0.00
2018-06-20T01:30:33.996Z,0.00
2018-06-20T01:31:33.991Z,0.00
2018-06-20T01:32:33.992Z,0.00
2018-06-20T01:33:33.989Z,0.00
2018-06-20T01:34:33.981Z,0.00
2018-06-20T01:35:33.974Z,0.00
2018-06-20T01:36:33.971Z,0.00
2018-06-20T01:37:33.967Z,0.00
2018-06-20T01:38:33.962Z,0.00
2018-06-20T01:39:33.959Z,0.00
2018-06-20T01:40:33.955Z,0.00
2018-06-20T01:41:33.951Z,0.00
2018-06-20T01:42:33.945Z,0.00
2018-06-20T01:43:33.945Z,0.00
2018-06-20T01:44:33.938Z,0.00
2018-06-20T01:45:33.937Z,0.00
2018-06-20T01:46:33.929Z,0.00
2018-06-20T01:47:33.925Z,0.00
2018-06-20T01:48:33.925Z,0.00
2018-06-20T01:49:33.918Z,0.00
2018-06-20T01:50:33.912Z,0.00
2018-06-20T01:51:33.909Z,0.00
2018-06-20T01:52:33.904Z,0.00
2018-06-20T01:53:33.901Z,0.00
2018-06-20T01:54:33.896Z,0.00
2018-06-20T01:55:33.951Z,0.00
2018-06-20T01:56:33.889Z,0.00
2018-06-20T01:57:33.885Z,0.00
2018-06-20T01:58:33.880Z,0.00
2018-06-20T01:59:33.875Z,0.00
2018-06-20T02:00:33.871Z,0.00
2018-06-20T02:01:33.870Z,0.00
2018-06-20T02:02:33.863Z,0.00
2018-06-20T02:03:33.859Z,0.00
2018-06-20T02:04:33.855Z,0.00
2018-06-20T02:05:33.852Z,0.00
2018-06-20T02:06:33.847Z,0.00
2018-06-20T02:07:33.843Z,0.00
2018-06-20T02:08:33.842Z,0.00
2018-06-20T02:09:33.834Z,0.00
2018-06-20T02:10:33.830Z,0.00
2018-06-20T02:11:33.829Z,0.00
2018-06-20T02:12:33.822Z,0.00
2018-06-20T02:13:33.819Z,0.00
2018-06-20T02:14:33.814Z,0.00
2018-06-20T02:15:33.809Z,0.00
2018-06-20T02:16:33.805Z,0.00
2018-06-20T02:17:33.801Z,0.00
2018-06-20T02:18:33.797Z,0.00
2018-06-20T02:19:33.792Z,0.00
2018-06-20T02:20:33.793Z,0.00
2018-06-20T02:21:33.789Z,0.00
2018-06-20T02:22:33.779Z,0.00
2018-06-20T02:23:33.775Z,0.00
2018-06-20T02:24:33.773Z,0.00
2018-06-20T02:25:33.770Z,0.00
2018-06-20T02:26:33.763Z,0.00
2018-06-20T02:27:33.759Z,0.00
2018-06-20T02:28:33.755Z,0.00
2018-06-20T02:29:33.751Z,0.00
2018-06-20T02:30:33.948Z,0.00
2018-06-20T02:31:33.745Z,0.00
2018-06-20T02:32:33.738Z,0.00
2018-06-20T02:33:33.744Z,0.00
2018-06-20T02:34:33.731Z,0.00
2018-06-20T02:35:33.725Z,0.00
2018-06-20T02:36:33.745Z,0.00
2018-06-20T02:37:33.718Z,0.00
2018-06-20T02:38:33.712Z,0.00
2018-06-20T02:39:33.708Z,4.00
2018-06-20T02:40:33.907Z,4.00
2018-06-20T02:41:33.700Z,4.00
2018-06-20T02:42:33.696Z,0.00
2018-06-20T02:43:33.691Z,0.00
2018-06-20T02:44:33.692Z,4.00
2018-06-20T02:45:33.684Z,4.00
2018-06-20T02:46:33.680Z,4.00
2018-06-20T02:47:33.674Z,4.00
2018-06-20T02:48:33.671Z,4.00
2018-06-20T02:49:33.666Z,8.00
2018-06-20T02:50:33.661Z,4.00
2018-06-20T02:51:33.657Z,8.00
2018-06-20T02:52:33.657Z,8.00
2018-06-20T02:53:33.649Z,8.00
2018-06-20T02:54:33.644Z,8.00
2018-06-20T02:55:33.640Z,12.00
2018-06-20T02:56:33.636Z,12.00
2018-06-20T02:57:33.632Z,16.00
2018-06-20T02:58:33.628Z,16.00
2018-06-20T02:59:33.625Z,20.00
2018-06-20T03:00:33.620Z,20.00
2018-06-20T03:01:33.615Z,24.00
2018-06-20T03:02:33.610Z,24.00
2018-06-20T03:03:33.611Z,24.00
2018-06-20T03:04:33.602Z,32.00
2018-06-20T03:05:33.597Z,32.00
2018-06-20T03:06:33.593Z,40.00
2018-06-20T03:07:33.589Z,44.00
2018-06-20T03:08:33.584Z,48.00
2018-06-20T03:09:33.580Z,52.00
2018-06-20T03:10:33.576Z,56.00
2018-06-20T03:11:33.571Z,68.00
2018-06-20T03:12:33.568Z,72.00
2018-06-20T03:13:33.563Z,84.00
2018-06-20T03:14:33.558Z,92.00
2018-06-20T03:15:33.555Z,96.00
2018-06-20T03:16:33.550Z,108.00
2018-06-20T03:17:33.546Z,120.00
2018-06-20T03:18:33.543Z,128.00
2018-06-20T03:19:33.541Z,140.00
2018-06-20T03:20:33.537Z,152.00
2018-06-20T03:21:33.529Z,164.00
2018-06-20T03:22:33.528Z,176.00
2018-06-20T03:23:33.524Z,192.00
2018-06-20T03:24:33.514Z,200.00
2018-06-20T03:25:33.511Z,208.00
2018-06-20T03:26:33.508Z,224.00
2018-06-20T03:27:33.502Z,248.00
2018-06-20T03:28:33.497Z,260.00
2018-06-20T03:29:33.493Z,272.00
2018-06-20T03:30:33.488Z,292.00
2018-06-20T03:31:33.486Z,304.00
2018-06-20T03:32:33.479Z,324.00
2018-06-20T03:33:33.479Z,340.00
2018-06-20T03:34:33.470Z,360.00
2018-06-20T03:35:33.470Z,372.00
2018-06-20T03:36:33.466Z,388.00
2018-06-20T03:37:33.458Z,408.00
2018-06-20T03:38:33.454Z,428.00
2018-06-20T03:39:33.449Z,452.00
2018-06-20T03:40:33.444Z,472.00
2018-06-20T03:41:33.442Z,484.00
2018-06-20T03:42:33.435Z,492.00
2018-06-20T03:43:33.432Z,500.00
2018-06-20T03:44:33.426Z,524.00
2018-06-20T03:45:33.425Z,544.00
2018-06-20T03:46:33.420Z,568.00
2018-06-20T03:47:33.413Z,592.00
2018-06-20T03:48:33.417Z,620.00
2018-06-20T03:49:33.404Z,652.00
2018-06-20T03:50:33.404Z,684.00
2018-06-20T03:51:33.400Z,716.00
2018-06-20T03:52:33.391Z,720.00
2018-06-20T03:53:33.388Z,732.00
2018-06-20T03:54:33.388Z,764.00
2018-06-20T03:55:33.380Z,812.00
2018-06-20T03:56:33.374Z,860.00
2018-06-20T03:57:33.370Z,900.00
2018-06-20T03:58:33.366Z,940.00
2018-06-20T03:59:33.360Z,984.00
2018-06-20T04:00:33.361Z,1024.00
2018-06-20T04:01:33.353Z,1080.00
2018-06-20T04:02:33.352Z,1180.00
2018-06-20T04:03:33.347Z,1216.00
2018-06-20T04:04:33.342Z,1212.00
2018-06-20T04:05:33.339Z,1216.00
2018-06-20T04:06:33.332Z,1232.00
2018-06-20T04:07:33.327Z,1288.00
2018-06-20T04:08:33.331Z,1360.00
2018-06-20T04:09:33.322Z,1400.00
2018-06-20T04:10:33.314Z,1488.00
2018-06-20T04:11:33.313Z,1604.00
2018-06-20T04:12:33.306Z,1692.00
2018-06-20T04:13:33.302Z,1760.00
2018-06-20T04:14:33.299Z,1744.00
2018-06-20T04:15:33.301Z,1720.00
2018-06-20T04:16:33.290Z,1692.00
2018-06-20T04:17:33.287Z,1692.00
2018-06-20T04:18:33.284Z,1772.00
2018-06-20T04:19:33.276Z,1904.00
2018-06-20T04:20:33.273Z,2004.00
2018-06-20T04:21:33.273Z,1992.00
2018-06-20T04:22:33.267Z,1980.00
2018-06-20T04:23:33.264Z,1940.00
2018-06-20T04:24:33.256Z,1900.00
2018-06-20T04:25:33.253Z,1832.00
2018-06-20T04:26:33.250Z,1852.00
2018-06-20T04:27:33.245Z,1920.00
2018-06-20T04:28:33.239Z,2044.00
2018-06-20T04:29:33.237Z,2148.00
2018-06-20T04:30:33.234Z,2132.00
2018-06-20T04:31:33.229Z,2140.00
2018-06-20T04:32:33.224Z,2200.00
2018-06-20T04:33:33.218Z,2276.00
2018-06-20T04:34:33.239Z,2224.00
2018-06-20T04:35:33.212Z,2348.00
2018-06-20T04:36:33.205Z,2564.00
2018-06-20T04:37:33.204Z,2620.00
2018-06-20T04:38:33.196Z,2624.00
2018-06-20T04:39:33.196Z,2460.00
2018-06-20T04:40:33.188Z,2336.00
2018-06-20T04:41:33.387Z,2280.00
2018-06-20T04:42:33.179Z,2308.00
2018-06-20T04:43:33.177Z,2356.00
2018-06-20T04:44:33.213Z,2472.00
2018-06-20T04:45:33.170Z,2764.00
2018-06-20T04:46:33.167Z,2920.00
2018-06-20T04:47:33.159Z,2940.00
2018-06-20T04:48:33.155Z,2768.00
2018-06-20T04:49:33.150Z,2704.00
2018-06-20T04:50:33.146Z,2744.00
2018-06-20T04:51:33.142Z,2748.00
2018-06-20T04:52:33.139Z,2552.00
2018-06-20T04:53:33.135Z,2504.00
2018-06-20T04:54:33.133Z,2432.00
2018-06-20T04:55:33.136Z,2340.00
2018-06-20T04:56:33.121Z,2464.00
2018-06-20T04:57:33.117Z,2524.00
2018-06-20T04:58:33.116Z,2512.00
2018-06-20T04:59:33.108Z,2448.00
2018-06-20T05:00:33.106Z,2340.00
2018-06-20T05:01:33.100Z,2320.00
2018-06-20T05:02:33.099Z,2356.00
2018-06-20T05:03:33.097Z,2368.00
2018-06-20T05:04:33.089Z,2444.00
2018-06-20T05:05:33.092Z,2508.00
2018-06-20T05:06:33.080Z,2524.00
2018-06-20T05:07:33.078Z,2472.00
2018-06-20T05:08:33.076Z,2444.00
2018-06-20T05:09:33.067Z,2404.00
2018-06-20T05:10:33.066Z,2412.00
2018-06-20T05:11:33.062Z,2444.00
2018-06-20T05:12:33.054Z,2488.00
2018-06-20T05:13:33.049Z,2536.00
2018-06-20T05:14:33.044Z,2608.00
2018-06-20T05:15:33.041Z,2692.00
2018-06-20T05:16:33.037Z,2688.00
2018-06-20T05:17:33.033Z,2724.00
2018-06-20T05:18:33.027Z,2660.00
2018-06-20T05:19:33.236Z,2652.00
2018-06-20T05:20:33.023Z,2688.00
2018-06-20T05:21:33.018Z,2704.00
2018-06-20T05:22:33.041Z,2740.00
2018-06-20T05:23:33.007Z,2840.00
2018-06-20T05:24:33.008Z,3236.00
2018-06-20T05:25:33.002Z,3792.00
2018-06-20T05:26:32.998Z,3988.00
2018-06-20T05:27:32.989Z,3736.00
2018-06-20T05:28:32.985Z,3268.00
2018-06-20T05:29:32.986Z,3092.00
2018-06-20T05:30:32.976Z,3096.00
2018-06-20T05:31:32.972Z,3224.00
2018-06-20T05:32:32.969Z,3304.00
2018-06-20T05:33:32.971Z,3360.00
2018-06-20T05:34:32.967Z,3412.00
2018-06-20T05:35:32.961Z,3412.00
2018-06-20T05:36:32.957Z,3420.00
2018-06-20T05:37:32.956Z,3468.00
2018-06-20T05:38:32.945Z,3536.00
2018-06-20T05:39:32.944Z,3572.00
2018-06-20T05:40:32.939Z,3552.00
2018-06-20T05:41:32.932Z,3544.00
2018-06-20T05:42:32.931Z,3560.00
2018-06-20T05:43:32.925Z,3588.00
2018-06-20T05:44:32.919Z,3576.00
2018-06-20T05:46:32.910Z,3672.00
2018-06-20T05:47:33.108Z,3724.00
2018-06-20T05:48:32.906Z,3760.00
2018-06-20T05:49:32.898Z,3828.00
2018-06-20T05:50:32.897Z,3912.00
2018-06-20T05:51:32.895Z,3928.00
2018-06-20T05:52:32.896Z,3932.00
2018-06-20T05:53:32.887Z,3984.00
2018-06-20T05:54:32.883Z,4060.00
2018-06-20T05:55:32.872Z,4108.00
2018-06-20T05:56:32.869Z,4140.00
2018-06-20T05:57:32.868Z,4120.00
2018-06-20T05:58:32.863Z,4156.00
2018-06-20T05:59:32.857Z,4136.00
2018-06-20T06:00:32.852Z,4144.00
2018-06-20T06:01:32.855Z,4204.00
2018-06-20T06:02:32.856Z,4280.00
2018-06-20T06:03:32.843Z,4360.00
2018-06-20T06:04:32.842Z,4400.00
2018-06-20T06:05:32.832Z,4504.00
2018-06-20T06:06:32.828Z,4572.00
2018-06-20T06:07:32.831Z,4612.00
2018-06-20T06:08:32.819Z,4592.00
2018-06-20T06:09:32.822Z,4548.00
2018-06-20T06:10:32.811Z,4592.00
2018-06-20T06:11:32.808Z,4636.00
2018-06-20T06:12:32.804Z,4644.00
2018-06-20T06:13:33.007Z,4684.00
2018-06-20T06:14:32.796Z,4720.00
2018-06-20T06:15:32.792Z,4732.00
2018-06-20T06:16:32.788Z,4784.00
2018-06-20T06:17:32.785Z,4848.00
2018-06-20T06:18:32.780Z,4924.00
2018-06-20T06:19:32.777Z,4936.00
2018-06-20T06:20:32.773Z,5064.00
2018-06-20T06:21:32.769Z,5128.00
2018-06-20T06:22:32.764Z,5204.00
2018-06-20T06:23:32.769Z,5240.00
2018-06-20T06:24:32.760Z,5360.00
2018-06-20T06:25:32.762Z,5536.00
2018-06-20T06:26:32.749Z,5396.00
2018-06-20T06:27:32.747Z,5364.00
2018-06-20T06:28:32.748Z,5428.00
2018-06-20T06:29:32.739Z,5444.00
2018-06-20T06:30:32.746Z,5484.00
2018-06-20T06:31:32.731Z,5596.00
2018-06-20T06:32:32.729Z,5660.00
2018-06-20T06:33:32.728Z,5696.00
2018-06-20T06:34:32.719Z,5800.00
2018-06-20T06:35:32.721Z,5968.00
2018-06-20T06:36:32.715Z,6044.00
2018-06-20T06:37:32.709Z,6192.00
2018-06-20T06:38:32.709Z,6500.00
2018-06-20T06:39:32.704Z,6548.00
2018-06-20T06:40:32.912Z,6312.00
2018-06-20T06:41:32.701Z,6396.00
2018-06-20T06:42:32.691Z,6504.00
2018-06-20T06:43:32.689Z,6740.00
2018-06-20T06:44:32.687Z,6764.00
2018-06-20T06:45:32.687Z,6748.00
2018-06-20T06:46:32.678Z,7152.00
2018-06-20T06:47:32.675Z,7464.00
2018-06-20T06:48:32.678Z,7344.00
2018-06-20T06:49:32.679Z,7000.00
2018-06-20T06:50:32.668Z,7300.00
2018-06-20T06:51:32.663Z,7968.00
2018-06-20T06:52:32.659Z,14784.00
2018-06-20T06:53:32.656Z,15724.00
2018-06-20T06:54:32.655Z,9660.00
2018-06-20T06:55:32.651Z,7484.00
2018-06-20T06:56:32.647Z,8172.00
2018-06-20T06:57:32.644Z,8400.00
2018-06-20T06:58:32.641Z,7892.00
2018-06-20T06:59:32.638Z,7916.00
2018-06-20T07:00:32.641Z,7636.00
2018-06-20T07:01:32.636Z,7828.00
2018-06-20T07:02:32.633Z,10752.00
2018-06-20T07:03:32.634Z,16352.00
2018-06-20T07:04:32.626Z,16512.00
2018-06-20T07:05:32.629Z,25376.00
2018-06-20T07:06:32.621Z,32736.00
2018-06-20T07:07:32.619Z,27008.00
2018-06-20T07:08:32.617Z,17920.00
2018-06-20T07:09:32.620Z,13228.00
2018-06-20T07:10:32.612Z,17504.00
2018-06-20T07:11:32.611Z,13268.00
2018-06-20T07:12:32.610Z,14616.00
2018-06-20T07:13:32.609Z,24864.00
2018-06-20T07:14:32.608Z,7552.00
2018-06-20T07:15:32.677Z,14988.00
2018-06-20T07:16:32.605Z,21696.00
2018-06-20T07:17:32.606Z,15528.00
2018-06-20T07:18:32.608Z,12012.00
2018-06-20T07:19:32.611Z,11016.00
2018-06-20T07:20:32.607Z,10664.00
2018-06-20T07:21:32.602Z,10420.00
2018-06-20T07:22:32.601Z,11016.00
2018-06-20T07:23:32.805Z,28576.00
2018-06-20T07:24:32.624Z,24128.00
2018-06-20T07:25:32.606Z,45504.00
2018-06-20T07:26:32.601Z,58944.00
2018-06-20T07:27:32.604Z,47456.00
2018-06-20T07:28:32.602Z,46048.00
2018-06-20T07:29:32.604Z,56544.00
2018-06-20T07:30:32.603Z,54656.00
2018-06-20T07:31:32.608Z,0.00
2018-06-20T07:32:32.609Z,57536.00
2018-06-20T07:33:32.608Z,55424.00
2018-06-20T07:34:32.625Z,57248.00
2018-06-20T07:35:32.697Z,15676.00
2018-06-20T07:36:32.631Z,17536.00
2018-06-20T07:37:32.616Z,9524.00
2018-06-20T07:38:32.621Z,20480.00
2018-06-20T07:39:32.628Z,61760.00
2018-06-20T07:40:32.625Z,56704.00
2018-06-20T07:41:32.633Z,63392.00
2018-06-20T07:42:32.631Z,60448.00
2018-06-20T07:43:32.641Z,63232.00
2018-06-20T07:44:32.640Z,69280.00
2018-06-20T07:45:32.646Z,35104.00
2018-06-20T07:46:32.651Z,20384.00
2018-06-20T07:47:32.657Z,24960.00
2018-06-20T07:48:32.663Z,17568.00
2018-06-20T07:49:32.675Z,20704.00
2018-06-20T07:50:32.673Z,23456.00
2018-06-20T07:51:32.682Z,67968.00
2018-06-20T07:52:32.685Z,29568.00
2018-06-20T07:53:32.688Z,26400.00
2018-06-20T07:54:32.693Z,66752.00
2018-06-20T07:55:32.702Z,65376.00
2018-06-20T07:56:32.708Z,65632.00
2018-06-20T07:57:32.919Z,65856.00
2018-06-20T07:58:32.716Z,68032.00
2018-06-20T07:59:32.724Z,20480.00
2018-06-20T08:00:32.733Z,41184.00
2018-06-20T08:01:32.739Z,29024.00
2018-06-20T08:02:32.748Z,68736.00
2018-06-20T08:03:32.752Z,70368.00
2018-06-20T08:04:32.762Z,51520.00
2018-06-20T08:05:32.776Z,26624.00
2018-06-20T08:06:32.775Z,17824.00
2018-06-20T08:07:32.782Z,20864.00
2018-06-20T08:08:32.799Z,60640.00
2018-06-20T08:09:33.007Z,38656.00
2018-06-20T08:10:33.004Z,68064.00
2018-06-20T08:11:33.011Z,20736.00
2018-06-20T08:12:32.879Z,72992.00
2018-06-20T08:13:32.828Z,67328.00
2018-06-20T08:14:32.827Z,70816.00
2018-06-20T08:15:32.845Z,73824.00
2018-06-20T08:16:32.842Z,71328.00
2018-06-20T08:17:32.849Z,20608.00
2018-06-20T08:18:32.858Z,73184.00
2018-06-20T08:19:33.068Z,71808.00
2018-06-20T08:20:32.876Z,66976.00
2018-06-20T08:21:32.884Z,71968.00
2018-06-20T08:22:32.889Z,71328.00
2018-06-20T08:23:32.899Z,71232.00
2018-06-20T08:24:32.908Z,74016.00
2018-06-20T08:26:32.932Z,57376.00
2018-06-20T08:27:32.939Z,52064.00
2018-06-20T08:28:32.947Z,71840.00
2018-06-20T08:29:32.959Z,73248.00
2018-06-20T08:30:32.967Z,76896.00
2018-06-20T08:31:32.978Z,71904.00
2018-06-20T08:32:32.988Z,79136.00
2018-06-20T08:33:33.000Z,80640.00
2018-06-20T08:34:33.009Z,77728.00
2018-06-20T08:35:33.035Z,79296.00
2018-06-20T08:36:33.033Z,82880.00
2018-06-20T08:37:33.044Z,79744.00
2018-06-20T08:38:33.055Z,73664.00
2018-06-20T08:40:33.087Z,76864.00
2018-06-20T08:41:33.094Z,76096.00
2018-06-20T08:42:33.153Z,70304.00
2018-06-20T08:43:33.118Z,78272.00
2018-06-20T08:44:33.135Z,74976.00
2018-06-20T08:45:33.144Z,74496.00
2018-06-20T08:46:33.156Z,72960.00
2018-06-20T08:47:33.171Z,77632.00
2018-06-20T08:48:33.186Z,72800.00
2018-06-20T08:49:33.196Z,75040.00
2018-06-20T08:50:33.215Z,76640.00
2018-06-20T08:51:33.224Z,73472.00
2018-06-20T08:52:33.441Z,50816.00
2018-06-20T08:53:33.254Z,19104.00
2018-06-20T08:54:33.265Z,55936.00
2018-06-20T08:55:33.278Z,14496.00
2018-06-20T08:56:33.292Z,27360.00
2018-06-20T08:57:33.305Z,79776.00
2018-06-20T08:58:33.317Z,73920.00
2018-06-20T08:59:33.331Z,69056.00
2018-06-20T09:00:33.344Z,73248.00
2018-06-20T09:01:33.356Z,71968.00
2018-06-20T09:02:33.373Z,74016.00
2018-06-20T09:03:33.382Z,71040.00
2018-06-20T09:04:33.602Z,76512.00
2018-06-20T09:05:33.410Z,76288.00
2018-06-20T09:06:33.423Z,74048.00
2018-06-20T09:07:33.441Z,74080.00
2018-06-20T09:08:33.478Z,81664.00
2018-06-20T09:09:33.465Z,52480.00
2018-06-20T09:10:33.486Z,59360.00
2018-06-20T09:11:33.493Z,72544.00
2018-06-20T09:12:33.507Z,76576.00
2018-06-20T09:13:33.521Z,70464.00
2018-06-20T09:14:33.537Z,68672.00
2018-06-20T09:15:33.751Z,73024.00
2018-06-20T09:16:33.563Z,72160.00
2018-06-20T09:17:33.582Z,72640.00
2018-06-20T09:18:33.591Z,73120.00
2018-06-20T09:19:33.610Z,49344.00
2018-06-20T09:20:33.622Z,75264.00
2018-06-20T09:21:33.635Z,74336.00
2018-06-20T09:22:33.649Z,79360.00
2018-06-20T09:23:33.669Z,53344.00
2018-06-20T09:24:33.680Z,25952.00
2018-06-20T09:25:33.692Z,80192.00
2018-06-20T09:26:33.710Z,82016.00
2018-06-20T09:27:33.719Z,77024.00
2018-06-20T09:28:33.736Z,42016.00
2018-06-20T09:29:33.749Z,36320.00
2018-06-20T09:30:33.759Z,81248.00
2018-06-20T09:31:33.773Z,81152.00
2018-06-20T09:32:33.788Z,21312.00
2018-06-20T09:33:33.800Z,18336.00
2018-06-20T09:34:33.816Z,50336.00
2018-06-20T09:35:34.026Z,75104.00
2018-06-20T09:36:33.836Z,79648.00
2018-06-20T09:37:34.051Z,35072.00
2018-06-20T09:38:33.908Z,16936.00
2018-06-20T09:39:33.914Z,13828.00
2018-06-20T09:40:33.886Z,30816.00
2018-06-20T09:41:33.897Z,76768.00
2018-06-20T09:42:34.109Z,77088.00
2018-06-20T09:43:33.921Z,78784.00
2018-06-20T09:44:33.933Z,70784.00
2018-06-20T09:45:33.944Z,78592.00
2018-06-20T09:46:33.954Z,75232.00
2018-06-20T09:48:34.181Z,32480.00
2018-06-20T09:49:33.996Z,68832.00
2018-06-20T09:50:34.005Z,80768.00
2018-06-20T09:51:34.018Z,81344.00
2018-06-20T09:52:34.030Z,82336.00
2018-06-20T09:53:34.044Z,82336.00
2018-06-20T09:54:34.066Z,82368.00
2018-06-20T09:55:34.070Z,80352.00
2018-06-20T09:56:34.087Z,87360.00
2018-06-20T09:57:34.105Z,88160.00
2018-06-20T09:58:34.114Z,86400.00
2018-06-20T09:59:34.128Z,88128.00
2018-06-20T10:00:34.158Z,92576.00
2018-06-20T10:01:34.248Z,94944.00
2018-06-20T10:02:34.174Z,94304.00
2018-06-20T10:03:34.192Z,96800.00
2018-06-20T10:04:34.212Z,100384.00
2018-06-20T10:05:34.222Z,93280.00
2018-06-20T10:06:34.385Z,63872.00
2018-06-20T10:07:34.258Z,20832.00
2018-06-20T10:08:34.269Z,37376.00
2018-06-20T10:09:34.281Z,22048.00
2018-06-20T10:10:34.294Z,31136.00
2018-06-20T10:11:34.309Z,18880.00
2018-06-20T10:12:34.322Z,16836.00
2018-06-20T10:13:34.333Z,96672.00
2018-06-20T10:14:34.349Z,98496.00
2018-06-20T10:15:34.357Z,98208.00
2018-06-20T10:16:34.372Z,101664.00
2018-06-20T10:17:34.388Z,106112.00
2018-06-20T10:18:34.394Z,101088.00
2018-06-20T10:19:34.411Z,97056.00
2018-06-20T10:20:34.424Z,95360.00
2018-06-20T10:21:34.436Z,89664.00
2018-06-20T10:22:34.449Z,87552.00
2018-06-20T10:23:34.463Z,87264.00
2018-06-20T10:24:34.481Z,88704.00
2018-06-20T10:25:34.699Z,87456.00
2018-06-20T10:26:34.507Z,84672.00
2018-06-20T10:27:34.526Z,84928.00
2018-06-20T10:28:34.580Z,84352.00
2018-06-20T10:29:34.553Z,83616.00
2018-06-20T10:30:34.565Z,89664.00
2018-06-20T10:31:34.580Z,68384.00
2018-06-20T10:32:34.597Z,91360.00
2018-06-20T10:33:34.616Z,91680.00
2018-06-20T10:34:34.627Z,96448.00
2018-06-20T10:35:34.642Z,94848.00
2018-06-20T10:36:34.657Z,95808.00
2018-06-20T10:37:34.675Z,87200.00
2018-06-20T10:38:34.694Z,96672.00
2018-06-20T10:39:34.704Z,96992.00
2018-06-20T10:40:34.722Z,26880.00
2018-06-20T10:41:34.736Z,90080.00
2018-06-20T10:42:34.754Z,99584.00
2018-06-20T10:43:34.766Z,91520.00
2018-06-20T10:44:34.786Z,93248.00
2018-06-20T10:45:34.797Z,91872.00
2018-06-20T10:46:34.813Z,86816.00
2018-06-20T10:47:34.831Z,85056.00
2018-06-20T10:48:34.849Z,80672.00
2018-06-20T10:49:34.871Z,84608.00
2018-06-20T10:50:34.878Z,86304.00
2018-06-20T10:51:34.891Z,96000.00
2018-06-20T10:52:34.911Z,91040.00
2018-06-20T10:53:34.924Z,85376.00
2018-06-20T10:54:34.940Z,85984.00
2018-06-20T10:55:34.969Z,82752.00
2018-06-20T10:56:34.975Z,83616.00
2018-06-20T10:57:35.192Z,78944.00
2018-06-20T10:58:35.208Z,78048.00
2018-06-20T10:59:35.027Z,70464.00
2018-06-20T11:00:35.040Z,68320.00
2018-06-20T11:01:35.055Z,65696.00
2018-06-20T11:02:35.075Z,63328.00
2018-06-20T11:03:35.090Z,60960.00
2018-06-20T11:04:35.104Z,57728.00
2018-06-20T11:05:35.127Z,56768.00
2018-06-20T11:06:35.139Z,55520.00
2018-06-20T11:07:35.155Z,56640.00
2018-06-20T11:08:35.168Z,10364.00
2018-06-20T11:09:35.203Z,55648.00
2018-06-20T11:10:35.199Z,55360.00
2018-06-20T11:11:35.214Z,53280.00
2018-06-20T11:12:35.232Z,52416.00
2018-06-20T11:13:35.252Z,52640.00
2018-06-20T11:14:35.262Z,51840.00
2018-06-20T11:15:35.278Z,52224.00
2018-06-20T11:16:35.495Z,52032.00
2018-06-20T11:17:35.310Z,51776.00
2018-06-20T11:18:35.324Z,51520.00
2018-06-20T11:19:35.341Z,51552.00
2018-06-20T11:20:35.357Z,50944.00
2018-06-20T11:21:35.373Z,50368.00
2018-06-20T11:22:35.393Z,50624.00
2018-06-20T11:23:35.409Z,51328.00
2018-06-20T11:24:35.420Z,51200.00
2018-06-20T11:25:35.437Z,51840.00
2018-06-20T11:26:35.455Z,50944.00
2018-06-20T11:27:35.472Z,51328.00
2018-06-20T11:28:35.484Z,51488.00
2018-06-20T11:29:35.505Z,52160.00
2018-06-20T11:30:35.518Z,52192.00
2018-06-20T11:31:35.938Z,53024.00
2018-06-20T11:32:35.556Z,53216.00
2018-06-20T11:33:35.569Z,53408.00
2018-06-20T11:34:35.581Z,53728.00
2018-06-20T11:35:35.597Z,53376.00
2018-06-20T11:36:35.614Z,53600.00
2018-06-20T11:37:35.630Z,53920.00
2018-06-20T11:38:35.645Z,54016.00
2018-06-20T11:39:35.683Z,54336.00
2018-06-20T11:40:35.679Z,54016.00
2018-06-20T11:41:35.695Z,54560.00
2018-06-20T11:42:35.715Z,53440.00
2018-06-20T11:43:35.728Z,53728.00
2018-06-20T11:44:35.744Z,55040.00
2018-06-20T11:45:35.762Z,54976.00
2018-06-20T11:46:35.776Z,54880.00
2018-06-20T11:47:35.792Z,55040.00
2018-06-20T11:48:35.809Z,56128.00
2018-06-20T11:49:35.825Z,55616.00
2018-06-20T11:50:35.841Z,56576.00
2018-06-20T11:51:35.857Z,56576.00
2018-06-20T11:52:35.881Z,56896.00
2018-06-20T11:53:35.891Z,56576.00
2018-06-20T11:54:35.906Z,55488.00
2018-06-20T11:55:35.926Z,54080.00
2018-06-20T11:56:35.939Z,56320.00
2018-06-20T11:57:35.955Z,56064.00
2018-06-20T11:58:36.173Z,56448.00
2018-06-20T11:59:35.987Z,57280.00
2018-06-20T12:00:36.004Z,57568.00
2018-06-20T12:01:36.020Z,57376.00
2018-06-20T12:02:36.034Z,57568.00
2018-06-20T12:03:36.050Z,58720.00
2018-06-20T12:04:36.072Z,57952.00
2018-06-20T12:05:36.089Z,57824.00
2018-06-20T12:06:36.101Z,57952.00
2018-06-20T12:07:36.115Z,57664.00
2018-06-20T12:08:36.131Z,57376.00
2018-06-20T12:09:36.148Z,56928.00
2018-06-20T12:10:36.163Z,57024.00
2018-06-20T12:11:36.384Z,57376.00
2018-06-20T12:12:36.398Z,54624.00
2018-06-20T12:13:36.275Z,56512.00
2018-06-20T12:14:36.227Z,57504.00
2018-06-20T12:15:36.245Z,57088.00
2018-06-20T12:16:36.259Z,57152.00
2018-06-20T12:17:36.285Z,57312.00
2018-06-20T12:18:36.288Z,57664.00
2018-06-20T12:19:36.310Z,58592.00